createdAt,value
2022-12-11T00:00:15.296Z,1009.46
2022-12-11T00:01:15.304Z,1009.45
2022-12-11T00:02:15.370Z,1009.43
2022-12-11T00:03:16.258Z,1009.46
2022-12-11T00:04:15.279Z,1009.42
2022-12-11T00:05:15.234Z,1009.44
2022-12-11T00:06:15.268Z,1009.45
2022-12-11T00:07:15.201Z,1009.44
2022-12-11T00:08:15.241Z,1009.44
2022-12-11T00:09:15.178Z,1009.45
2022-12-11T00:10:15.206Z,1009.43
2022-12-11T00:11:15.169Z,1009.49
2022-12-11T00:12:15.139Z,1009.48
2022-12-11T00:13:15.132Z,1009.45
2022-12-11T00:14:15.120Z,1009.49
2022-12-11T00:15:15.120Z,1009.47
2022-12-11T00:16:15.125Z,1009.49
2022-12-11T00:17:15.081Z,1009.46
2022-12-11T00:18:15.059Z,1009.45
2022-12-11T00:19:15.050Z,1009.41
2022-12-11T00:20:15.054Z,1009.42
2022-12-11T00:21:15.019Z,1009.41
2022-12-11T00:22:15.009Z,1009.45
2022-12-11T00:23:14.998Z,1009.45
2022-12-11T00:24:14.990Z,1009.46
2022-12-11T00:25:14.989Z,1009.50
2022-12-11T00:26:14.961Z,1009.47
2022-12-11T00:27:14.947Z,1009.47
2022-12-11T00:28:14.933Z,1009.49
2022-12-11T00:29:14.917Z,1009.49
2022-12-11T00:30:14.917Z,1009.50
2022-12-11T00:31:14.919Z,1009.52
2022-12-11T00:32:14.898Z,1009.51
2022-12-11T00:33:14.873Z,1009.53
2022-12-11T00:34:14.849Z,1009.53
2022-12-11T00:35:14.855Z,1009.51
2022-12-11T00:36:14.840Z,1009.53
2022-12-11T00:37:14.898Z,1009.51
2022-12-11T00:38:14.800Z,1009.54
2022-12-11T00:39:14.788Z,1009.52
2022-12-11T00:40:14.798Z,1009.53
2022-12-11T00:41:14.790Z,1009.47
2022-12-11T00:42:14.750Z,1009.53
2022-12-11T00:43:14.739Z,1009.49
2022-12-11T00:44:14.719Z,1009.58
2022-12-11T00:45:14.734Z,1009.57
2022-12-11T00:46:14.730Z,1009.56
2022-12-11T00:47:14.710Z,1009.56
2022-12-11T00:48:14.665Z,1009.52
2022-12-11T00:49:14.663Z,1009.56
2022-12-11T00:50:14.668Z,1009.52
2022-12-11T00:51:14.644Z,1009.54
2022-12-11T00:52:14.611Z,1009.50
2022-12-11T00:53:14.607Z,1009.51
2022-12-11T00:54:14.590Z,1009.52
2022-12-11T00:55:14.609Z,1009.46
2022-12-11T00:56:14.560Z,1009.52
2022-12-11T00:57:14.553Z,1009.52
2022-12-11T00:58:14.537Z,1009.46
2022-12-11T00:59:14.530Z,1009.44
2022-12-11T01:00:14.516Z,1009.44
2022-12-11T01:01:14.537Z,1009.46
2022-12-11T01:02:14.484Z,1009.45
2022-12-11T01:03:14.559Z,1009.46
2022-12-11T01:04:14.461Z,1009.47
2022-12-11T01:05:14.461Z,1009.45
2022-12-11T01:06:14.448Z,1009.43
2022-12-11T01:07:14.421Z,1009.39
2022-12-11T01:08:14.426Z,1009.41
2022-12-11T01:09:14.393Z,1009.36
2022-12-11T01:10:14.458Z,1009.36
2022-12-11T01:11:14.406Z,1009.33
2022-12-11T01:12:14.361Z,1009.35
2022-12-11T01:13:14.345Z,1009.34
2022-12-11T01:14:14.347Z,1009.31
2022-12-11T01:15:14.323Z,1009.28
2022-12-11T01:16:14.353Z,1009.29
2022-12-11T01:17:14.310Z,1009.33
2022-12-11T01:18:14.277Z,1009.32
2022-12-11T01:19:14.272Z,1009.34
2022-12-11T01:20:14.251Z,1009.34
2022-12-11T01:21:14.249Z,1009.36
2022-12-11T01:22:14.252Z,1009.39
2022-12-11T01:23:14.213Z,1009.40
2022-12-11T01:24:14.200Z,1009.45
2022-12-11T01:25:14.191Z,1009.44
2022-12-11T01:26:14.199Z,1009.41
2022-12-11T01:27:14.160Z,1009.41
2022-12-11T01:28:14.149Z,1009.42
2022-12-11T01:29:14.139Z,1009.44
2022-12-11T01:30:14.122Z,1009.43
2022-12-11T01:31:14.173Z,1009.49
2022-12-11T01:32:14.090Z,1009.45
2022-12-11T01:33:14.092Z,1009.51
2022-12-11T01:34:14.068Z,1009.48
2022-12-11T01:35:14.061Z,1009.42
2022-12-11T01:36:14.071Z,1009.44
2022-12-11T01:37:14.029Z,1009.44
2022-12-11T01:38:14.033Z,1009.42
2022-12-11T01:39:14.012Z,1009.41
2022-12-11T01:40:13.984Z,1009.39
2022-12-11T01:41:14.017Z,1009.38
2022-12-11T01:42:14.014Z,1009.41
2022-12-11T01:43:13.953Z,1009.41
2022-12-11T01:44:13.933Z,1009.41
2022-12-11T01:45:13.932Z,1009.42
2022-12-11T01:46:13.988Z,1009.40
2022-12-11T01:47:13.903Z,1009.42
2022-12-11T01:48:13.884Z,1009.40
2022-12-11T01:49:13.862Z,1009.38
2022-12-11T01:50:13.853Z,1009.34
2022-12-11T01:51:13.881Z,1009.37
2022-12-11T01:52:13.832Z,1009.38
2022-12-11T01:53:13.825Z,1009.37
2022-12-11T01:54:13.804Z,1009.37
2022-12-11T01:55:13.804Z,1009.38
2022-12-11T01:56:13.792Z,1009.36
2022-12-11T01:57:13.773Z,1009.33
2022-12-11T01:58:13.752Z,1009.33
2022-12-11T01:59:13.756Z,1009.33
2022-12-11T02:00:13.724Z,1009.31
2022-12-11T02:01:13.775Z,1009.31
2022-12-11T02:02:13.738Z,1009.32
2022-12-11T02:03:13.692Z,1009.28
2022-12-11T02:04:13.675Z,1009.29
2022-12-11T02:05:13.770Z,1009.29
2022-12-11T02:06:13.672Z,1009.29
2022-12-11T02:07:13.642Z,1009.26
2022-12-11T02:08:13.670Z,1009.25
2022-12-11T02:09:13.622Z,1009.25
2022-12-11T02:10:13.605Z,1009.24
2022-12-11T02:11:13.615Z,1009.19
2022-12-11T02:12:13.576Z,1009.22
2022-12-11T02:13:13.564Z,1009.26
2022-12-11T02:14:13.561Z,1009.22
2022-12-11T02:15:13.633Z,1009.24
2022-12-11T02:16:13.586Z,1009.19
2022-12-11T02:17:13.515Z,1009.23
2022-12-11T02:18:13.496Z,1009.19
2022-12-11T02:19:13.494Z,1009.15
2022-12-11T02:20:13.481Z,1009.17
2022-12-11T02:21:13.485Z,1009.15
2022-12-11T02:22:13.466Z,1009.12
2022-12-11T02:23:13.436Z,1009.09
2022-12-11T02:24:13.416Z,1009.11
2022-12-11T02:25:13.537Z,1009.06
2022-12-11T02:26:13.383Z,1009.11
2022-12-11T02:27:13.408Z,1009.06
2022-12-11T02:28:13.398Z,1009.11
2022-12-11T02:29:13.355Z,1009.05
2022-12-11T02:30:13.345Z,1009.09
2022-12-11T02:31:13.346Z,1009.10
2022-12-11T02:32:13.339Z,1009.10
2022-12-11T02:33:13.303Z,1009.10
2022-12-11T02:34:13.286Z,1009.08
2022-12-11T02:35:13.598Z,1009.05
2022-12-11T02:36:13.254Z,1009.04
2022-12-11T02:37:13.271Z,1009.05
2022-12-11T02:38:13.233Z,1009.06
2022-12-11T02:39:13.223Z,1009.06
2022-12-11T02:40:13.222Z,1009.11
2022-12-11T02:41:13.210Z,1009.09
2022-12-11T02:42:13.205Z,1009.09
2022-12-11T02:43:13.174Z,1009.09
2022-12-11T02:44:13.152Z,1009.08
2022-12-11T02:45:13.437Z,1009.11
2022-12-11T02:46:13.149Z,1009.11
2022-12-11T02:47:13.145Z,1009.11
2022-12-11T02:48:13.103Z,1009.04
2022-12-11T02:49:13.097Z,1009.04
2022-12-11T02:50:13.082Z,1009.08
2022-12-11T02:51:13.073Z,1009.07
2022-12-11T02:52:13.072Z,1009.08
2022-12-11T02:53:13.044Z,1009.06
2022-12-11T02:54:13.024Z,1009.00
2022-12-11T02:55:13.274Z,1009.04
2022-12-11T02:56:13.007Z,1008.96
2022-12-11T02:57:13.005Z,1008.94
2022-12-11T02:58:12.993Z,1008.94
2022-12-11T02:59:12.964Z,1008.94
2022-12-11T03:00:12.946Z,1008.91
2022-12-11T03:01:13.048Z,1008.93
2022-12-11T03:02:12.968Z,1008.92
2022-12-11T03:03:12.914Z,1008.94
2022-12-11T03:04:12.895Z,1008.92
2022-12-11T03:05:13.096Z,1008.94
2022-12-11T03:06:12.868Z,1008.94
2022-12-11T03:07:12.886Z,1008.98
2022-12-11T03:08:12.891Z,1008.97
2022-12-11T03:09:12.834Z,1008.95
2022-12-11T03:10:12.824Z,1008.94
2022-12-11T03:11:12.813Z,1008.91
2022-12-11T03:12:12.816Z,1008.87
2022-12-11T03:13:12.783Z,1008.89
2022-12-11T03:14:12.765Z,1008.89
2022-12-11T03:15:13.051Z,1008.91
2022-12-11T03:16:12.810Z,1008.95
2022-12-11T03:17:12.755Z,1008.94
2022-12-11T03:18:12.715Z,1008.95
2022-12-11T03:19:12.706Z,1008.95
2022-12-11T03:20:12.688Z,1008.97
2022-12-11T03:21:12.687Z,1008.94
2022-12-11T03:22:12.665Z,1008.97
2022-12-11T03:23:12.672Z,1008.93
2022-12-11T03:24:12.634Z,1008.94
2022-12-11T03:25:12.862Z,1008.90
2022-12-11T03:26:12.635Z,1008.95
2022-12-11T03:27:12.597Z,1008.93
2022-12-11T03:28:12.599Z,1008.93
2022-12-11T03:29:12.577Z,1008.97
2022-12-11T03:30:12.577Z,1008.97
2022-12-11T03:31:12.586Z,1008.95
2022-12-11T03:32:12.534Z,1009.03
2022-12-11T03:33:12.528Z,1008.97
2022-12-11T03:34:12.518Z,1008.96
2022-12-11T03:35:12.969Z,1008.96
2022-12-11T03:36:12.485Z,1008.92
2022-12-11T03:37:12.478Z,1008.96
2022-12-11T03:38:12.454Z,1008.96
2022-12-11T03:39:12.447Z,1008.96
2022-12-11T03:40:12.445Z,1008.95
2022-12-11T03:41:12.421Z,1008.97
2022-12-11T03:42:12.416Z,1008.96
2022-12-11T03:43:12.398Z,1009.00
2022-12-11T03:44:12.375Z,1008.97
2022-12-11T03:45:12.537Z,1008.97
2022-12-11T03:46:12.380Z,1008.95
2022-12-11T03:47:12.334Z,1009.00
2022-12-11T03:48:12.317Z,1008.98
2022-12-11T03:49:12.316Z,1008.99
2022-12-11T03:50:12.305Z,1008.97
2022-12-11T03:51:12.307Z,1008.95
2022-12-11T03:52:12.265Z,1008.98
2022-12-11T03:53:12.263Z,1008.95
2022-12-11T03:54:12.246Z,1008.92
2022-12-11T03:55:12.683Z,1008.90
2022-12-11T03:56:12.219Z,1008.95
2022-12-11T03:57:12.219Z,1008.86
2022-12-11T03:58:12.196Z,1008.91
2022-12-11T03:59:12.187Z,1008.90
2022-12-11T04:00:12.189Z,1008.86
2022-12-11T04:01:12.167Z,1008.88
2022-12-11T04:02:12.197Z,1008.84
2022-12-11T04:03:13.939Z,1008.92
2022-12-11T04:04:12.281Z,1008.88
2022-12-11T04:05:12.404Z,1008.91
2022-12-11T04:06:12.151Z,1008.91
2022-12-11T04:07:12.086Z,1008.87
2022-12-11T04:08:12.147Z,1008.88
2022-12-11T04:09:12.084Z,1008.90
2022-12-11T04:10:12.036Z,1008.86
2022-12-11T04:11:12.065Z,1008.87
2022-12-11T04:12:12.018Z,1008.86
2022-12-11T04:13:12.020Z,1008.84
2022-12-11T04:14:11.996Z,1008.81
2022-12-11T04:15:12.228Z,1008.84
2022-12-11T04:16:12.020Z,1008.82
2022-12-11T04:17:11.955Z,1008.82
2022-12-11T04:18:11.934Z,1008.82
2022-12-11T04:19:11.926Z,1008.81
2022-12-11T04:20:11.927Z,1008.77
2022-12-11T04:21:11.908Z,1008.76
2022-12-11T04:22:11.885Z,1008.78
2022-12-11T04:23:11.877Z,1008.76
2022-12-11T04:24:11.866Z,1008.74
2022-12-11T04:25:12.176Z,1008.76
2022-12-11T04:26:11.827Z,1008.71
2022-12-11T04:27:11.827Z,1008.76
2022-12-11T04:28:11.811Z,1008.76
2022-12-11T04:29:11.798Z,1008.74
2022-12-11T04:30:11.806Z,1008.74
2022-12-11T04:31:11.794Z,1008.64
2022-12-11T04:32:11.762Z,1008.67
2022-12-11T04:33:11.739Z,1008.66
2022-12-11T04:34:11.741Z,1008.66
2022-12-11T04:35:12.026Z,1008.67
2022-12-11T04:36:11.709Z,1008.68
2022-12-11T04:37:11.688Z,1008.66
2022-12-11T04:38:11.689Z,1008.65
2022-12-11T04:39:11.683Z,1008.65
2022-12-11T04:40:11.675Z,1008.63
2022-12-11T04:41:11.645Z,1008.68
2022-12-11T04:42:11.649Z,1008.67
2022-12-11T04:43:11.613Z,1008.62
2022-12-11T04:44:11.606Z,1008.59
2022-12-11T04:45:11.771Z,1008.60
2022-12-11T04:46:11.620Z,1008.60
2022-12-11T04:47:11.558Z,1008.60
2022-12-11T04:48:11.548Z,1008.59
2022-12-11T04:49:11.536Z,1008.59
2022-12-11T04:50:11.548Z,1008.59
2022-12-11T04:51:11.505Z,1008.60
2022-12-11T04:52:11.497Z,1008.58
2022-12-11T04:53:11.503Z,1008.54
2022-12-11T04:54:11.469Z,1008.57
2022-12-11T04:55:11.680Z,1008.56
2022-12-11T04:56:11.480Z,1008.62
2022-12-11T04:57:11.427Z,1008.56
2022-12-11T04:58:11.419Z,1008.56
2022-12-11T04:59:11.397Z,1008.58
2022-12-11T05:00:11.412Z,1008.58
2022-12-11T05:01:11.415Z,1008.58
2022-12-11T05:02:11.367Z,1008.65
2022-12-11T05:03:11.394Z,1008.65
2022-12-11T05:04:11.337Z,1008.65
2022-12-11T05:05:11.541Z,1008.59
2022-12-11T05:06:11.323Z,1008.61
2022-12-11T05:07:11.297Z,1008.58
2022-12-11T05:08:11.356Z,1008.61
2022-12-11T05:09:11.268Z,1008.61
2022-12-11T05:10:11.276Z,1008.60
2022-12-11T05:11:11.253Z,1008.64
2022-12-11T05:12:11.238Z,1008.65
2022-12-11T05:13:11.222Z,1008.70
2022-12-11T05:14:11.208Z,1008.72
2022-12-11T05:15:11.554Z,1008.75
2022-12-11T05:16:11.239Z,1008.70
2022-12-11T05:17:11.168Z,1008.74
2022-12-11T05:18:11.156Z,1008.72
2022-12-11T05:19:11.157Z,1008.79
2022-12-11T05:20:11.146Z,1008.79
2022-12-11T05:21:11.126Z,1008.72
2022-12-11T05:22:11.106Z,1008.69
2022-12-11T05:23:11.089Z,1008.70
2022-12-11T05:24:11.098Z,1008.71
2022-12-11T05:25:11.356Z,1008.70
2022-12-11T05:26:11.058Z,1008.64
2022-12-11T05:27:11.038Z,1008.64
2022-12-11T05:28:11.028Z,1008.63
2022-12-11T05:29:11.043Z,1008.61
2022-12-11T05:30:11.005Z,1008.55
2022-12-11T05:31:11.073Z,1008.58
2022-12-11T05:32:10.982Z,1008.57
2022-12-11T05:33:10.959Z,1008.57
2022-12-11T05:34:10.950Z,1008.55
2022-12-11T05:35:11.118Z,1008.53
2022-12-11T05:36:10.928Z,1008.52
2022-12-11T05:37:10.909Z,1008.50
2022-12-11T05:38:10.901Z,1008.54
2022-12-11T05:39:10.884Z,1008.49
2022-12-11T05:40:10.896Z,1008.50
2022-12-11T05:41:10.859Z,1008.52
2022-12-11T05:42:10.840Z,1008.47
2022-12-11T05:43:10.833Z,1008.49
2022-12-11T05:44:10.851Z,1008.50
2022-12-11T05:45:10.992Z,1008.46
2022-12-11T05:46:10.830Z,1008.45
2022-12-11T05:47:10.782Z,1008.47
2022-12-11T05:48:10.770Z,1008.44
2022-12-11T05:49:10.769Z,1008.46
2022-12-11T05:50:10.740Z,1008.46
2022-12-11T05:51:10.727Z,1008.47
2022-12-11T05:52:10.718Z,1008.50
2022-12-11T05:53:10.698Z,1008.49
2022-12-11T05:54:10.709Z,1008.48
2022-12-11T05:55:11.005Z,1008.49
2022-12-11T05:56:10.667Z,1008.49
2022-12-11T05:57:10.649Z,1008.45
2022-12-11T05:58:10.640Z,1008.46
2022-12-11T05:59:10.637Z,1008.45
2022-12-11T06:00:10.617Z,1008.46
2022-12-11T06:01:10.601Z,1008.43
2022-12-11T06:02:10.674Z,1008.46
2022-12-11T06:03:10.660Z,1008.47
2022-12-11T06:04:10.578Z,1008.46
2022-12-11T06:05:10.813Z,1008.45
2022-12-11T06:06:10.538Z,1008.44
2022-12-11T06:07:10.526Z,1008.43
2022-12-11T06:08:10.599Z,1008.44
2022-12-11T06:09:10.510Z,1008.43
2022-12-11T06:10:10.479Z,1008.39
2022-12-11T06:11:10.459Z,1008.39
2022-12-11T06:12:10.462Z,1008.43
2022-12-11T06:13:10.437Z,1008.40
2022-12-11T06:14:10.450Z,1008.44
2022-12-11T06:15:10.820Z,1008.39
2022-12-11T06:16:10.433Z,1008.41
2022-12-11T06:17:10.389Z,1008.42
2022-12-11T06:18:10.385Z,1008.42
2022-12-11T06:19:10.383Z,1008.42
2022-12-11T06:20:10.354Z,1008.45
2022-12-11T06:21:10.338Z,1008.39
2022-12-11T06:22:10.332Z,1008.39
2022-12-11T06:23:10.317Z,1008.42
2022-12-11T06:24:10.324Z,1008.38
2022-12-11T06:25:10.511Z,1008.41
2022-12-11T06:26:10.278Z,1008.39
2022-12-11T06:27:10.272Z,1008.39
2022-12-11T06:28:10.251Z,1008.38
2022-12-11T06:29:12.947Z,1008.35
2022-12-11T06:30:10.219Z,1008.38
2022-12-11T06:31:10.273Z,1008.41
2022-12-11T06:32:10.201Z,1008.43
2022-12-11T06:33:10.179Z,1008.42
2022-12-11T06:34:10.192Z,1008.38
2022-12-11T06:35:10.379Z,1008.44
2022-12-11T06:36:10.148Z,1008.40
2022-12-11T06:37:10.129Z,1008.37
2022-12-11T06:38:10.120Z,1008.40
2022-12-11T06:39:10.111Z,1008.40
2022-12-11T06:40:10.102Z,1008.39
2022-12-11T06:41:10.090Z,1008.40
2022-12-11T06:42:10.069Z,1008.38
2022-12-11T06:43:10.061Z,1008.41
2022-12-11T06:44:10.061Z,1008.37
2022-12-11T06:45:10.392Z,1008.44
2022-12-11T06:46:10.089Z,1008.41
2022-12-11T06:47:10.003Z,1008.41
2022-12-11T06:48:09.993Z,1008.43
2022-12-11T06:49:09.992Z,1008.41
2022-12-11T06:50:09.981Z,1008.43
2022-12-11T06:51:09.959Z,1008.38
2022-12-11T06:52:12.520Z,1008.41
2022-12-11T06:53:10.921Z,1008.35
2022-12-11T06:54:09.943Z,1008.38
2022-12-11T06:55:10.282Z,1008.39
2022-12-11T06:56:09.951Z,1008.33
2022-12-11T06:57:09.927Z,1008.34
2022-12-11T06:58:09.853Z,1008.34
2022-12-11T06:59:09.861Z,1008.39
2022-12-11T07:00:09.854Z,1008.38
2022-12-11T07:01:09.866Z,1008.41
2022-12-11T07:02:09.862Z,1008.41
2022-12-11T07:03:09.791Z,1008.40
2022-12-11T07:04:09.800Z,1008.44
2022-12-11T07:05:10.023Z,1008.43
2022-12-11T07:06:09.756Z,1008.44
2022-12-11T07:07:09.744Z,1008.48
2022-12-11T07:08:09.812Z,1008.47
2022-12-11T07:09:09.733Z,1008.46
2022-12-11T07:10:09.712Z,1008.51
2022-12-11T07:11:09.683Z,1008.48
2022-12-11T07:12:09.680Z,1008.52
2022-12-11T07:13:09.672Z,1008.56
2022-12-11T07:14:09.693Z,1008.52
2022-12-11T07:15:09.972Z,1008.48
2022-12-11T07:16:09.674Z,1008.54
2022-12-11T07:17:09.613Z,1008.56
2022-12-11T07:18:09.612Z,1008.50
2022-12-11T07:19:09.581Z,1008.48
2022-12-11T07:20:09.595Z,1008.49
2022-12-11T07:21:09.564Z,1008.50
2022-12-11T07:22:09.552Z,1008.50
2022-12-11T07:23:09.533Z,1008.53
2022-12-11T07:24:09.522Z,1008.50
2022-12-11T07:25:09.844Z,1008.53
2022-12-11T07:26:09.593Z,1008.50
2022-12-11T07:27:09.473Z,1008.51
2022-12-11T07:28:13.663Z,1008.52
2022-12-11T07:29:10.452Z,1008.51
2022-12-11T07:30:09.489Z,1008.49
2022-12-11T07:31:09.424Z,1008.53
2022-12-11T07:32:09.494Z,1008.52
2022-12-11T07:33:09.402Z,1008.51
2022-12-11T07:34:09.394Z,1008.58
2022-12-11T07:35:09.866Z,1008.55
2022-12-11T07:36:09.371Z,1008.56
2022-12-11T07:37:09.349Z,1008.52
2022-12-11T07:38:09.348Z,1008.54
2022-12-11T07:39:09.322Z,1008.61
2022-12-11T07:40:09.332Z,1008.57
2022-12-11T07:41:09.307Z,1008.61
2022-12-11T07:42:09.285Z,1008.61
2022-12-11T07:43:09.273Z,1008.60
2022-12-11T07:44:09.279Z,1008.60
2022-12-11T07:45:09.466Z,1008.59
2022-12-11T07:46:09.285Z,1008.56
2022-12-11T07:47:09.213Z,1008.59
2022-12-11T07:48:09.213Z,1008.62
2022-12-11T07:49:09.212Z,1008.60
2022-12-11T07:50:09.183Z,1008.60
2022-12-11T07:51:09.169Z,1008.58
2022-12-11T07:52:09.163Z,1008.57
2022-12-11T07:53:09.146Z,1008.59
2022-12-11T07:54:09.149Z,1008.57
2022-12-11T07:55:09.498Z,1008.57
2022-12-11T07:56:09.109Z,1008.58
2022-12-11T07:57:13.971Z,1008.58
2022-12-11T07:58:10.084Z,1008.58
2022-12-11T07:59:09.082Z,1008.60
2022-12-11T08:00:09.054Z,1008.58
2022-12-11T08:01:09.066Z,1008.58
2022-12-11T08:02:09.062Z,1008.59
2022-12-11T08:03:09.023Z,1008.61
2022-12-11T08:04:09.022Z,1008.57
2022-12-11T08:05:09.198Z,1008.60
2022-12-11T08:06:08.984Z,1008.62
2022-12-11T08:07:08.962Z,1008.64
2022-12-11T08:08:08.980Z,1008.63
2022-12-11T08:09:08.947Z,1008.64
2022-12-11T08:10:08.930Z,1008.62
2022-12-11T08:11:08.902Z,1008.66
2022-12-11T08:12:08.891Z,1008.64
2022-12-11T08:13:08.872Z,1008.62
2022-12-11T08:14:08.890Z,1008.65
2022-12-11T08:15:09.156Z,1008.60
2022-12-11T08:16:08.843Z,1008.57
2022-12-11T08:17:08.829Z,1008.59
2022-12-11T08:18:08.816Z,1008.57
2022-12-11T08:19:08.816Z,1008.60
2022-12-11T08:20:08.784Z,1008.57
2022-12-11T08:21:08.772Z,1008.57
2022-12-11T08:22:08.764Z,1008.55
2022-12-11T08:23:08.751Z,1008.59
2022-12-11T08:24:08.758Z,1008.61
2022-12-11T08:25:08.939Z,1008.58
2022-12-11T08:26:08.722Z,1008.61
2022-12-11T08:27:08.695Z,1008.59
2022-12-11T08:28:08.691Z,1008.62
2022-12-11T08:29:08.685Z,1008.64
2022-12-11T08:30:08.667Z,1008.67
2022-12-11T08:31:08.680Z,1008.66
2022-12-11T08:32:12.218Z,1008.62
2022-12-11T08:33:08.613Z,1008.68
2022-12-11T08:34:08.627Z,1008.63
2022-12-11T08:35:08.796Z,1008.64
2022-12-11T08:36:08.578Z,1008.61
2022-12-11T08:37:08.570Z,1008.61
2022-12-11T08:38:08.554Z,1008.61
2022-12-11T08:39:08.555Z,1008.61
2022-12-11T08:40:08.524Z,1008.57
2022-12-11T08:41:08.517Z,1008.58
2022-12-11T08:42:08.505Z,1008.55
2022-12-11T08:43:08.486Z,1008.57
2022-12-11T08:44:12.951Z,1008.59
2022-12-11T08:45:09.876Z,1008.56
2022-12-11T08:46:08.511Z,1008.59
2022-12-11T08:47:08.443Z,1008.58
2022-12-11T08:48:08.424Z,1008.61
2022-12-11T08:49:08.437Z,1008.60
2022-12-11T08:50:08.395Z,1008.60
2022-12-11T08:51:08.385Z,1008.59
2022-12-11T08:52:08.375Z,1008.63
2022-12-11T08:53:08.373Z,1008.63
2022-12-11T08:54:08.357Z,1008.62
2022-12-11T08:55:08.657Z,1008.63
2022-12-11T08:56:08.324Z,1008.57
2022-12-11T08:57:08.305Z,1008.58
2022-12-11T08:58:08.292Z,1008.59
2022-12-11T08:59:08.302Z,1008.62
2022-12-11T09:00:08.273Z,1008.57
2022-12-11T09:01:08.331Z,1008.60
2022-12-11T09:02:08.262Z,1008.57
2022-12-11T09:03:12.645Z,1008.52
2022-12-11T09:04:08.240Z,1008.55
2022-12-11T09:05:08.575Z,1008.58
2022-12-11T09:06:08.195Z,1008.56
2022-12-11T09:07:08.175Z,1008.55
2022-12-11T09:08:08.223Z,1008.60
2022-12-11T09:09:08.175Z,1008.59
2022-12-11T09:10:08.138Z,1008.56
2022-12-11T09:11:08.125Z,1008.57
2022-12-11T09:12:08.105Z,1008.55
2022-12-11T09:13:08.115Z,1008.64
2022-12-11T09:14:08.401Z,1008.56
2022-12-11T09:15:08.130Z,1008.55
2022-12-11T09:16:08.160Z,1008.57
2022-12-11T09:17:08.049Z,1008.56
2022-12-11T09:18:08.037Z,1008.59
2022-12-11T09:19:08.035Z,1008.61
2022-12-11T09:20:08.016Z,1008.60
2022-12-11T09:21:07.994Z,1008.57
2022-12-11T09:22:07.988Z,1008.59
2022-12-11T09:23:07.965Z,1008.55
2022-12-11T09:24:07.974Z,1008.59
2022-12-11T09:25:08.038Z,1008.61
2022-12-11T09:26:07.929Z,1008.55
2022-12-11T09:27:07.928Z,1008.59
2022-12-11T09:28:07.904Z,1008.61
2022-12-11T09:29:07.915Z,1008.63
2022-12-11T09:30:07.878Z,1008.61
2022-12-11T09:31:07.930Z,1008.59
2022-12-11T09:32:07.862Z,1008.58
2022-12-11T09:33:07.854Z,1008.52
2022-12-11T09:34:07.844Z,1008.57
2022-12-11T09:35:07.855Z,1008.55
2022-12-11T09:36:07.794Z,1008.63
2022-12-11T09:37:07.788Z,1008.59
2022-12-11T09:38:07.773Z,1008.60
2022-12-11T09:39:07.776Z,1008.60
2022-12-11T09:40:08.095Z,1008.63
2022-12-11T09:41:07.740Z,1008.61
2022-12-11T09:42:07.724Z,1008.64
2022-12-11T09:43:07.713Z,1008.65
2022-12-11T09:44:07.693Z,1008.65
2022-12-11T09:45:07.718Z,1008.66
2022-12-11T09:46:07.714Z,1008.64
2022-12-11T09:47:07.657Z,1008.66
2022-12-11T09:48:07.636Z,1008.62
2022-12-11T09:49:07.635Z,1008.63
2022-12-11T09:50:07.635Z,1008.56
2022-12-11T09:51:07.605Z,1008.58
2022-12-11T09:52:07.591Z,1008.58
2022-12-11T09:53:07.584Z,1008.56
2022-12-11T09:54:07.556Z,1008.55
2022-12-11T09:55:07.573Z,1008.51
2022-12-11T09:56:07.536Z,1008.53
2022-12-11T09:57:07.527Z,1008.52
2022-12-11T09:58:07.516Z,1008.53
2022-12-11T09:59:07.504Z,1008.53
2022-12-11T10:00:07.506Z,1008.53
2022-12-11T10:01:07.547Z,1008.56
2022-12-11T10:02:07.465Z,1008.50
2022-12-11T10:03:07.456Z,1008.53
2022-12-11T10:04:17.149Z,1008.53
2022-12-11T10:05:09.499Z,1008.52
2022-12-11T10:06:07.409Z,1008.53
2022-12-11T10:07:07.397Z,1008.56
2022-12-11T10:08:07.425Z,1008.56
2022-12-11T10:09:07.379Z,1008.56
2022-12-11T10:10:07.380Z,1008.58
2022-12-11T10:11:07.356Z,1008.56
2022-12-11T10:12:07.341Z,1008.49
2022-12-11T10:13:07.343Z,1008.50
2022-12-11T10:14:07.317Z,1008.51
2022-12-11T10:15:07.382Z,1008.50
2022-12-11T10:16:07.321Z,1008.49
2022-12-11T10:17:07.287Z,1008.50
2022-12-11T10:18:07.264Z,1008.47
2022-12-11T10:19:07.260Z,1008.44
2022-12-11T10:20:07.251Z,1008.39
2022-12-11T10:21:07.258Z,1008.41
2022-12-11T10:22:07.230Z,1008.40
2022-12-11T10:23:07.187Z,1008.43
2022-12-11T10:24:07.178Z,1008.41
2022-12-11T10:25:11.965Z,1008.36
2022-12-11T10:26:08.158Z,1008.35
2022-12-11T10:27:07.168Z,1008.36
2022-12-11T10:28:07.117Z,1008.34
2022-12-11T10:29:07.126Z,1008.40
2022-12-11T10:30:07.128Z,1008.34
2022-12-11T10:31:07.171Z,1008.33
2022-12-11T10:32:07.067Z,1008.37
2022-12-11T10:33:07.087Z,1008.35
2022-12-11T10:34:07.038Z,1008.34
2022-12-11T10:35:07.055Z,1008.34
2022-12-11T10:36:07.025Z,1008.32
2022-12-11T10:37:07.007Z,1008.35
2022-12-11T10:38:06.989Z,1008.33
2022-12-11T10:39:07.017Z,1008.36
2022-12-11T10:40:06.993Z,1008.34
2022-12-11T10:41:06.951Z,1008.33
2022-12-11T10:42:06.950Z,1008.34
2022-12-11T10:43:07.022Z,1008.29
2022-12-11T10:44:07.538Z,1008.31
2022-12-11T10:45:06.948Z,1008.27
2022-12-11T10:46:06.935Z,1008.30
2022-12-11T10:47:06.886Z,1008.29
2022-12-11T10:48:06.877Z,1008.25
2022-12-11T10:49:06.860Z,1008.22
2022-12-11T10:50:06.851Z,1008.22
2022-12-11T10:51:06.841Z,1008.17
2022-12-11T10:52:06.798Z,1008.19
2022-12-11T10:53:06.937Z,1008.14
2022-12-11T10:54:07.551Z,1008.11
2022-12-11T10:55:06.781Z,1008.12
2022-12-11T10:56:06.767Z,1008.14
2022-12-11T10:57:06.768Z,1008.07
2022-12-11T10:58:06.729Z,1008.11
2022-12-11T10:59:06.745Z,1008.05
2022-12-11T11:00:06.717Z,1008.08
2022-12-11T11:01:06.696Z,1008.10
2022-12-11T11:02:06.703Z,1008.09
2022-12-11T11:03:06.744Z,1008.08
2022-12-11T11:04:06.660Z,1008.06
2022-12-11T11:05:06.657Z,1008.04
2022-12-11T11:06:06.645Z,1008.06
2022-12-11T11:07:06.608Z,1008.03
2022-12-11T11:08:06.696Z,1008.03
2022-12-11T11:09:06.642Z,1008.03
2022-12-11T11:10:06.580Z,1007.96
2022-12-11T11:11:06.569Z,1007.97
2022-12-11T11:12:08.199Z,1008.00
2022-12-11T11:13:06.528Z,1007.93
2022-12-11T11:14:06.537Z,1007.94
2022-12-11T11:15:06.528Z,1007.97
2022-12-11T11:16:06.567Z,1007.98
2022-12-11T11:17:06.478Z,1007.99
2022-12-11T11:18:06.478Z,1007.99
2022-12-11T11:19:06.459Z,1007.99
2022-12-11T11:20:06.458Z,1007.99
2022-12-11T11:21:06.450Z,1007.97
2022-12-11T11:22:06.415Z,1007.94
2022-12-11T11:23:06.401Z,1007.94
2022-12-11T11:24:06.412Z,1007.93
2022-12-11T11:25:06.412Z,1007.97
2022-12-11T11:26:06.359Z,1007.93
2022-12-11T11:27:14.050Z,1007.97
2022-12-11T11:28:07.335Z,1007.97
2022-12-11T11:29:06.319Z,1007.95
2022-12-11T11:30:06.342Z,1007.95
2022-12-11T11:31:06.315Z,1008.04
2022-12-11T11:32:06.278Z,1008.00
2022-12-11T11:33:06.305Z,1007.93
2022-12-11T11:34:06.258Z,1007.97
2022-12-11T11:35:06.266Z,1007.99
2022-12-11T11:36:06.238Z,1007.93
2022-12-11T11:37:06.225Z,1007.98
2022-12-11T11:38:06.217Z,1007.96
2022-12-11T11:39:06.207Z,1007.93
2022-12-11T11:40:06.197Z,1007.90
2022-12-11T11:41:11.546Z,1007.90
2022-12-11T11:42:07.157Z,1007.87
2022-12-11T11:43:06.150Z,1007.92
2022-12-11T11:44:06.138Z,1007.92
2022-12-11T11:45:06.149Z,1007.86
2022-12-11T11:46:06.180Z,1007.85
2022-12-11T11:47:06.092Z,1007.86
2022-12-11T11:48:11.100Z,1007.77
2022-12-11T11:49:07.067Z,1007.83
2022-12-11T11:50:06.104Z,1007.81
2022-12-11T11:51:06.036Z,1007.80
2022-12-11T11:52:06.018Z,1007.77
2022-12-11T11:53:06.019Z,1007.74
2022-12-11T11:54:06.007Z,1007.70
2022-12-11T11:55:06.006Z,1007.68
2022-12-11T11:56:05.969Z,1007.70
2022-12-11T11:57:05.968Z,1007.75
2022-12-11T11:58:05.941Z,1007.71
2022-12-11T11:59:05.935Z,1007.67
2022-12-11T12:00:05.942Z,1007.64
2022-12-11T12:01:05.906Z,1007.72
2022-12-11T12:02:05.896Z,1007.72
2022-12-11T12:03:05.976Z,1007.69
2022-12-11T12:04:12.918Z,1007.71
2022-12-11T12:05:13.137Z,1007.67